LGAVLGSR

Guest
Details From LGAV - Athens Intl Airport Elefterios Venizel
To LGSR - SANTORINI
Flight Number -
Tags decoded
Created
Modified
Stats Distance 128 nm / 236 km
Max Altitude 0 ft / 0 m
Waypoints 4
Social Downloads 28
Likes 0
Share VATSIM

Download

Looking for another format? Having issues loading an existing format? Contact us
Advertisement - Login to hide

Notes

Requested: LGAV SOREV UL617 MIL LGSR Unmatched points: UL617

Route

LGAV SOREV MIL LGSR

ID Type Via Altitude Latitude Longitude Leg Dist Tot Dist Heading (true) Name
O LGAV APT - 0 ft / 0 m 37.93636˚ 23.94447˚ - 0 nm - Athens Intl Airport Elefterios Venizel
SOREV FIX - 0 ft / 0 m 37.09694˚ 24.42444˚ 55 nm 55 nm 155° / 156° -
MIL VOR - 0 ft / 0 m 36.74752˚ 24.51945˚ 21 nm 76 nm 168° / 168° MILOS VOR-DME
O LGSR APT - 0 ft / 0 m 36.39895˚ 25.47851˚ 50 nm 127 nm 114° / 115° SANTORINI

Altitude Profile

Advertisement - Login to hide

LGAV

Details ICAO LGAV (ATH)
Name Athens Intl Airport Elefterios Venizel
Region Greece
Timezone Europe/Athens (UTC+3.0)
Stats Elevation 308 ft / 94 m (AMSL)
Location 37.936357° 23.944470°
Runways 2
Magnetic Variation 4.526° E

METAR

LGAV 211850Z 02011KT 9999 FEW030 22/11 Q1013 NOSIG

Decode

TAF

TAF TAF LGAV 211700Z 2118/2218 02014KT 9999 FEW030

Decode

Departure Runways

ID Width Length Bearing (true) Bearing (mag) Surface Threshold Offset Overrun Length
03L 148 ft / 45 m 12,474 ft / 3,802 m 36.51° 31.98° Asphalt 984 ft / 300 m 393 ft / 120 m
03R 148 ft / 45 m 13,131 ft / 4,002 m 36.52° 31.99° Asphalt 984 ft / 300 m 393 ft / 120 m
21L 148 ft / 45 m 13,131 ft / 4,002 m 216.54° 212.01° Asphalt 984 ft / 300 m 393 ft / 120 m
21R 148 ft / 45 m 12,474 ft / 3,802 m 216.53° 212.00° Asphalt 984 ft / 300 m 393 ft / 120 m

LGSR

Details ICAO LGSR (JTR)
Name SANTORINI
Region Greece
Timezone Europe/Athens (UTC+3.0)
Stats Elevation 127 ft / 39 m (AMSL)
Location 36.398949° 25.478507°
Runways 2
Magnetic Variation 4.553° E

METAR

LGSR 211850Z 33006KT 9999 FEW015 21/18 Q1010 RMK SCT100 BKN180 BLU

Decode

TAF

TAF LGSR 211700Z 2118/2218 02012KT 9999 FEW008 SCT020 BECMG 2122/2124 32012KT

Decode

Destination Runways

ID Width Length Bearing (true) Bearing (mag) Surface Threshold Offset Overrun Length
16L 98 ft / 30 m 6,978 ft / 2,127 m 159.53° 154.98° Asphalt 0 ft / 0 m 909 ft / 277 m
16R 98 ft / 30 m 6,969 ft / 2,124 m 159.56° 155.01° Asphalt 0 ft / 0 m 420 ft / 128 m
34L 98 ft / 30 m 6,969 ft / 2,124 m 339.56° 335.01° Asphalt 0 ft / 0 m 0 ft / 0 m
34R 98 ft / 30 m 6,978 ft / 2,127 m 339.54° 334.99° Asphalt 0 ft / 0 m 0 ft / 0 m

Popular Alternatives